• Join FlightAware (Why Join?)
  • Login
  • US Flag 
Gobble Gobble! 
03:57PM EST


 

Airport Tracker/Info


-or-


 

Live Flight TrackerFlight Track Log ✈ EZY2726 ✈ 22-Apr-2013 ✈ EHAM / AMS - LIMC / MXP

Flight Track Log - Related Links

Times and Time Zones

All times are in EDT time to prevent confusion due to time zone crossing. See the EZY2726 flight status page for this flight to view local times or setup timezone preferences in your user account.

Time Position Orientation Groundspeed Altitude Reporting Facility
EDT Latitude Longitude Course Direction KTS MPH feet Rate Location/Type
08:10AM 51.5731 5.2608 157° South  Level Estimated
08:11AM 51.4994 5.3096 158° South  Level Estimated
08:12AM 51.4257 5.3583 158° South  Level Estimated
08:13AM 51.3520 5.4068 158° South  Level Estimated
08:14AM 51.2783 5.4551 158° South  Level Estimated
08:15AM 51.2045 5.5033 158° South  Level Estimated
08:16AM 51.1307 5.5513 158° South  Level Estimated
08:17AM 51.0570 5.5992 158° South  Level Estimated
08:18AM 50.9832 5.6469 158° South  Level Estimated
08:19AM 50.9093 5.6945 158° South  Level Estimated
08:20AM 50.8355 5.7419 158° South  Level Estimated
08:21AM 50.7616 5.7892 158° South  Level Estimated
08:22AM 50.6877 5.8363 158° South  Level Estimated
08:23AM 50.6138 5.8833 158° South  Level Estimated
08:24AM 50.5391 5.9306 158° South  Level Estimated
08:25AM 50.4643 5.9778 158° South  Level Estimated
08:26AM 50.3895 6.0249 158° South  Level Estimated
08:27AM 50.3147 6.0718 158° South  Level Estimated
08:28AM 50.2399 6.1185 158° South  Level Estimated
08:29AM 50.1650 6.1651 158° South  Level Estimated
08:30AM 50.0902 6.2116 158° South  Level Estimated
08:31AM 50.0153 6.2579 158° South  Level Estimated
08:32AM 49.9404 6.3041 158° South  Level Estimated
08:33AM 49.8655 6.3501 158° South  Level Estimated
08:34AM 49.7905 6.3960 158° South  Level Estimated
08:35AM 49.7156 6.4418 158° South  Level Estimated
08:36AM 49.6406 6.4874 158° South  Level Estimated
08:37AM 49.5656 6.5328 159° South  Level Estimated
08:38AM 49.4906 6.5782 159° South  Level Estimated
08:39AM 49.4156 6.6234 159° South  Level Estimated
08:40AM 49.3405 6.6684 159° South  Level Estimated
08:41AM 49.2655 6.7133 159° South  Level Estimated
08:42AM 49.1904 6.7581 159° South  Level Estimated
08:43AM 49.1153 6.8027 159° South  Level Estimated
08:44AM 49.0402 6.8472 159° South  Level Estimated
08:45AM 48.9650 6.8916 159° South  Level Estimated
08:46AM 48.8899 6.9359 159° South  Level Estimated
08:47AM 48.8147 6.9799 159° South  Level Estimated
08:48AM 48.7395 7.0239 159° South  Level Estimated
08:49AM 48.6643 7.0678 159° South  Level Estimated
08:50AM 48.5891 7.1115 159° South  Level Estimated
08:51AM 48.5139 7.1550 159° South  Level Estimated
08:52AM 48.4386 7.1985 159° South  Level Estimated
08:53AM 48.3634 7.2418 159° South  Level Estimated
08:54AM 48.2881 7.2850 159° South  Level Estimated
08:55AM 48.2128 7.3281 159° South  Level Estimated
08:56AM 48.1375 7.3710 159° South  Level Estimated
08:57AM 48.0622 7.4138 159° South  Level Estimated
08:58AM 47.9868 7.4565 159° South  Level Estimated
08:59AM 47.9115 7.4991 159° South  Level Estimated
09:00AM 47.8361 7.5416 159° South  Level Estimated
09:01AM 47.7607 7.5839 159° South  Level Estimated
09:02AM 47.6853 7.6261 159° South  Level Estimated
09:03AM 47.6099 7.6681 159° South  Level Estimated
09:04AM 47.5344 7.7101 159° South  Level Estimated
09:05AM 47.4590 7.7519 159° South  Level Estimated
09:06AM 47.3835 7.7936 159° South  Level Estimated
09:07AM 47.3080 7.8352 160° South  Level Estimated
09:08AM 47.2325 7.8767 160° South  Level Estimated
09:09AM 47.1516 7.9210 160° South  Level Estimated
09:10AM 47.0706 7.9653 160° South  Level Estimated
09:11AM 46.9896 8.0093 160° South  Level Estimated
09:12AM 46.9085 8.0533 160° South  Level Estimated
09:13AM 46.8275 8.0971 160° South  Level Estimated
09:14AM 46.7464 8.1407 160° South  Level Estimated
09:15AM 46.6654 8.1843 160° South  Level Estimated
09:16AM 46.5843 8.2277 160° South  Level Estimated
09:17AM 46.5032 8.2710 160° South  Level Estimated
09:18AM 46.4220 8.3141 160° South  Level Estimated
09:19AM 46.3409 8.3572 160° South  Level Estimated
09:20AM 46.2597 8.4001 160° South  Level Estimated
09:21AM 46.1786 8.4428 160° South  Level Estimated
09:22AM 46.0974 8.4855 160° South  Level Estimated
09:23AM 46.0162 8.5280 160° South  Level Estimated
09:24AM 45.9350 8.5704 160° South  Level Estimated
09:25AM 45.8537 8.6127 160° South  Level Estimated
09:26AM 45.7725 8.6548 160° South  Level Estimated
09:27AM 45.6912 8.6968 160° South  Level Estimated
09:28AM 45.6306 8.7281 160° South  Level Estimated
09:29AM 45.6306 8.7281 170° South  Level Estimated
09:30AM 45.6306 8.7281 170° South  Level Estimated
09:31AM 45.6306 8.7281 170° South  Level Estimated
09:32AM 45.6306 8.7281 170° South  Level Estimated
09:33AM 45.6306 8.7281 170° South  Level Estimated
09:34AM 45.6306 8.7281 170° South  Level Estimated
09:35AM 45.6306 8.7281 170° South  Level Estimated
09:36AM 45.6306 8.7281 170° South  Level Estimated
09:37AM 45.6306 8.7281 170° South  Level Estimated
09:38AM 45.6306 8.7281 170° South  Level Estimated
09:39AM 45.6306 8.7281 170° South  Level Estimated